EZY1224 EGPH-EGKK
Flight info
| Callsign | EZY1224 |
|---|---|
| Flight time | 1h 7m |
| Altitude | 39000 |
| Route | GOSAM P600 FENIK L612 NAVSO DCT ADZOP DCT EGTOC DCT KEPAD L151 DISIT |
| Aircraft | A20N/M-SDE2E3FGHIRWXY/LB1 |
Departure
| Time | 2026-05-05 20:45 |
|---|---|
| Airport | Edinburgh Airport (EGPH) |
Arrival
| Time | 2026-05-05 21:52 |
|---|---|
| Airport | London Gatwick Airport (EGKK) |
| Time | Latitude | Longitude | Altitude | Speed | Heading |
|---|---|---|---|---|---|
| 2026-05-05 20:22 | 55.94940 | -3.36356 | 109 ft | 0 kts | 148° |
| 2026-05-05 20:33 | 55.94949 | -3.36366 | 109 ft | 3 kts | 148° |
| 2026-05-05 20:33 | 55.94963 | -3.36382 | 108 ft | 3 kts | 158° |
| 2026-05-05 20:33 | 55.94980 | -3.36382 | 107 ft | 2 kts | 199° |
| 2026-05-05 20:33 | 55.94986 | -3.36379 | 108 ft | 0 kts | 227° |
| 2026-05-05 20:36 | 55.94980 | -3.36408 | 109 ft | 10 kts | 249° |
| 2026-05-05 20:36 | 55.94958 | -3.36545 | 109 ft | 12 kts | 246° |
| 2026-05-05 20:36 | 55.94922 | -3.36665 | 110 ft | 11 kts | 239° |
| 2026-05-05 20:36 | 55.94905 | -3.36788 | 109 ft | 11 kts | 296° |
| 2026-05-05 20:37 | 55.94911 | -3.36915 | 106 ft | 11 kts | 251° |
| 2026-05-05 20:37 | 55.94878 | -3.37035 | 106 ft | 11 kts | 239° |
| 2026-05-05 20:37 | 55.94836 | -3.37159 | 108 ft | 13 kts | 238° |
| 2026-05-05 20:37 | 55.94791 | -3.37290 | 109 ft | 12 kts | 238° |
| 2026-05-05 20:38 | 55.94756 | -3.37393 | 111 ft | 8 kts | 238° |
| 2026-05-05 20:38 | 55.94731 | -3.37469 | 113 ft | 6 kts | 239° |
| 2026-05-05 20:38 | 55.94708 | -3.37539 | 111 ft | 8 kts | 240° |
| 2026-05-05 20:38 | 55.94678 | -3.37631 | 116 ft | 9 kts | 239° |
| 2026-05-05 20:39 | 55.94647 | -3.37721 | 117 ft | 11 kts | 238° |
| 2026-05-05 20:39 | 55.94580 | -3.37920 | 115 ft | 21 kts | 239° |
| 2026-05-05 20:39 | 55.94502 | -3.38140 | 113 ft | 22 kts | 238° |
| 2026-05-05 20:39 | 55.94427 | -3.38365 | 116 ft | 20 kts | 238° |
| 2026-05-05 20:40 | 55.94356 | -3.38568 | 120 ft | 18 kts | 238° |
| 2026-05-05 20:40 | 55.94297 | -3.38740 | 119 ft | 12 kts | 239° |
| 2026-05-05 20:40 | 55.94296 | -3.38866 | 120 ft | 10 kts | 310° |
| 2026-05-05 20:40 | 55.94311 | -3.38888 | 122 ft | 0 kts | 325° |
| 2026-05-05 20:43 | 55.94319 | -3.38897 | 122 ft | 8 kts | 326° |
| 2026-05-05 20:44 | 55.94434 | -3.38888 | 120 ft | 20 kts | 46° |
| 2026-05-05 20:44 | 55.94535 | -3.38608 | 116 ft | 49 kts | 59° |
| 2026-05-05 20:44 | 55.94832 | -3.37721 | 116 ft | 118 kts | 59° |
| 2026-05-05 20:44 | 55.95306 | -3.36273 | 510 ft | 136 kts | 62° |
| 2026-05-05 20:45 | 55.96194 | -3.33240 | 1998 ft | 153 kts | 66° |
| 2026-05-05 20:45 | 55.96952 | -3.31749 | 2534 ft | 179 kts | 31° |
| 2026-05-05 20:45 | 55.98271 | -3.31215 | 2990 ft | 212 kts | 12° |
| 2026-05-05 20:46 | 55.99620 | -3.29997 | 3469 ft | 229 kts | 43° |
| 2026-05-05 20:46 | 56.00909 | -3.28216 | 4214 ft | 241 kts | 25° |
| 2026-05-05 20:46 | 56.02583 | -3.27912 | 5093 ft | 251 kts | 349° |
| 2026-05-05 20:46 | 56.04093 | -3.29458 | 5717 ft | 257 kts | 314° |
| 2026-05-05 20:47 | 56.04890 | -3.32302 | 5967 ft | 262 kts | 283° |
| 2026-05-05 20:47 | 56.04781 | -3.35556 | 5997 ft | 268 kts | 253° |
| 2026-05-05 20:47 | 56.03916 | -3.38538 | 5988 ft | 273 kts | 240° |
| 2026-05-05 20:47 | 56.02859 | -3.41368 | 6002 ft | 274 kts | 238° |
| 2026-05-05 20:48 | 56.01880 | -3.44255 | 6001 ft | 270 kts | 248° |
| 2026-05-05 20:48 | 56.01267 | -3.47406 | 6001 ft | 268 kts | 256° |
| 2026-05-05 20:48 | 56.00784 | -3.50623 | 6002 ft | 268 kts | 257° |
| 2026-05-05 20:48 | 56.00325 | -3.53853 | 6000 ft | 268 kts | 257° |
| 2026-05-05 20:49 | 55.99868 | -3.57086 | 5996 ft | 268 kts | 258° |
| 2026-05-05 20:49 | 55.99410 | -3.60314 | 5997 ft | 268 kts | 258° |
| 2026-05-05 20:49 | 55.98951 | -3.63544 | 5994 ft | 268 kts | 257° |
| 2026-05-05 20:49 | 55.98490 | -3.66769 | 5994 ft | 268 kts | 258° |
| 2026-05-05 20:50 | 55.98029 | -3.69995 | 5995 ft | 268 kts | 257° |
| 2026-05-05 20:50 | 55.97721 | -3.72129 | 5994 ft | 268 kts | 257° |
| 2026-05-05 20:50 | 55.97100 | -3.76441 | 5981 ft | 268 kts | 257° |
| 2026-05-05 20:50 | 55.96640 | -3.79620 | 5982 ft | 268 kts | 258° |
| 2026-05-05 20:51 | 55.96168 | -3.82884 | 5991 ft | 268 kts | 258° |
| 2026-05-05 20:51 | 55.95706 | -3.86078 | 6415 ft | 270 kts | 258° |
| 2026-05-05 20:51 | 55.95219 | -3.89411 | 7027 ft | 289 kts | 257° |
| 2026-05-05 20:51 | 55.94538 | -3.92959 | 7425 ft | 316 kts | 248° |
| 2026-05-05 20:52 | 55.93426 | -3.96532 | 7824 ft | 343 kts | 237° |
| 2026-05-05 20:52 | 55.91807 | -3.99863 | 8258 ft | 368 kts | 226° |
| 2026-05-05 20:52 | 55.89878 | -4.02975 | 9013 ft | 378 kts | 223° |
| 2026-05-05 20:52 | 55.87876 | -4.06071 | 9972 ft | 384 kts | 224° |
| 2026-05-05 20:53 | 55.85848 | -4.09206 | 10806 ft | 389 kts | 224° |
| 2026-05-05 20:53 | 55.83801 | -4.12384 | 11663 ft | 393 kts | 224° |
| 2026-05-05 20:53 | 55.81733 | -4.15600 | 12527 ft | 397 kts | 224° |
| 2026-05-05 20:53 | 55.79639 | -4.18847 | 13392 ft | 402 kts | 223° |
| 2026-05-05 20:54 | 55.77440 | -4.21962 | 14222 ft | 407 kts | 220° |
| 2026-05-05 20:54 | 55.75048 | -4.24713 | 15026 ft | 413 kts | 208° |
| 2026-05-05 20:54 | 55.72326 | -4.26234 | 16278 ft | 409 kts | 192° |
| 2026-05-05 20:54 | 55.69503 | -4.26207 | 17576 ft | 406 kts | 172° |
| 2026-05-05 20:55 | 55.66813 | -4.24745 | 18682 ft | 405 kts | 161° |
| 2026-05-05 20:55 | 55.65099 | -4.23408 | 19201 ft | 407 kts | 156° |
| 2026-05-05 20:55 | 55.62581 | -4.21065 | 19917 ft | 411 kts | 153° |
| 2026-05-05 20:55 | 55.60098 | -4.18515 | 20600 ft | 415 kts | 152° |
| 2026-05-05 20:56 | 55.57608 | -4.15892 | 21287 ft | 418 kts | 152° |
| 2026-05-05 20:56 | 55.55094 | -4.13271 | 21951 ft | 421 kts | 152° |
| 2026-05-05 20:56 | 55.52548 | -4.10674 | 22597 ft | 424 kts | 153° |
| 2026-05-05 20:56 | 55.49967 | -4.08096 | 23240 ft | 428 kts | 153° |
| 2026-05-05 20:57 | 55.46472 | -4.04668 | 23968 ft | 432 kts | 154° |
| 2026-05-05 20:57 | 55.44725 | -4.02971 | 24268 ft | 434 kts | 154° |
| 2026-05-05 20:57 | 55.42066 | -4.00400 | 24735 ft | 438 kts | 154° |
| 2026-05-05 20:57 | 55.39390 | -3.97817 | 25233 ft | 441 kts | 154° |
| 2026-05-05 20:58 | 55.36690 | -3.95214 | 25714 ft | 443 kts | 154° |
| 2026-05-05 20:58 | 55.33978 | -3.92602 | 26176 ft | 446 kts | 154° |
| 2026-05-05 20:58 | 55.31247 | -3.89973 | 26640 ft | 449 kts | 154° |
| 2026-05-05 20:58 | 55.28503 | -3.87334 | 27081 ft | 452 kts | 154° |
| 2026-05-05 20:59 | 55.25739 | -3.84680 | 27534 ft | 454 kts | 154° |
| 2026-05-05 20:59 | 55.22926 | -3.82168 | 27985 ft | 454 kts | 159° |
| 2026-05-05 20:59 | 55.19978 | -3.80179 | 28374 ft | 455 kts | 163° |
| 2026-05-05 20:59 | 55.16977 | -3.78380 | 28770 ft | 457 kts | 165° |
| 2026-05-05 21:00 | 55.13945 | -3.76672 | 29182 ft | 459 kts | 166° |
| 2026-05-05 21:00 | 55.10891 | -3.75009 | 29652 ft | 460 kts | 166° |
| 2026-05-05 21:00 | 55.07838 | -3.73366 | 30235 ft | 457 kts | 166° |
| 2026-05-05 21:00 | 55.04803 | -3.71735 | 30715 ft | 456 kts | 166° |
| 2026-05-05 21:01 | 55.01769 | -3.70101 | 31025 ft | 458 kts | 166° |
| 2026-05-05 21:01 | 54.98725 | -3.68457 | 31090 ft | 457 kts | 166° |
| 2026-05-05 21:01 | 54.92662 | -3.65172 | 30948 ft | 457 kts | 166° |
| 2026-05-05 21:02 | 54.89624 | -3.63526 | 31061 ft | 458 kts | 166° |
| 2026-05-05 21:02 | 54.86584 | -3.61880 | 31072 ft | 457 kts | 166° |
| 2026-05-05 21:02 | 54.80551 | -3.58621 | 31072 ft | 457 kts | 166° |
| 2026-05-05 21:03 | 54.74434 | -3.55330 | 31071 ft | 457 kts | 166° |
| 2026-05-05 21:03 | 54.68398 | -3.52092 | 31063 ft | 457 kts | 166° |
| 2026-05-05 21:04 | 54.62312 | -3.48839 | 31064 ft | 458 kts | 166° |
| 2026-05-05 21:04 | 54.56219 | -3.45591 | 31066 ft | 458 kts | 166° |
| 2026-05-05 21:05 | 54.50127 | -3.42354 | 31072 ft | 458 kts | 166° |
| 2026-05-05 21:05 | 54.44034 | -3.39127 | 31053 ft | 458 kts | 166° |
| 2026-05-05 21:06 | 54.37937 | -3.35907 | 31061 ft | 458 kts | 166° |
| 2026-05-05 21:06 | 54.31839 | -3.32698 | 31061 ft | 458 kts | 166° |
| 2026-05-05 21:07 | 54.25739 | -3.29496 | 31062 ft | 459 kts | 166° |
| 2026-05-05 21:07 | 54.19627 | -3.26375 | 31048 ft | 457 kts | 169° |
| 2026-05-05 21:08 | 54.13367 | -3.24774 | 31061 ft | 454 kts | 176° |
| 2026-05-05 21:08 | 54.07080 | -3.23729 | 31057 ft | 454 kts | 178° |
| 2026-05-05 21:09 | 54.00802 | -3.22530 | 31054 ft | 456 kts | 171° |
| 2026-05-05 21:09 | 53.94704 | -3.19360 | 31046 ft | 460 kts | 163° |
| 2026-05-05 21:10 | 53.88711 | -3.15551 | 31053 ft | 460 kts | 161° |
| 2026-05-05 21:10 | 53.82746 | -3.11637 | 31051 ft | 458 kts | 161° |
| 2026-05-05 21:11 | 53.76801 | -3.07779 | 31054 ft | 457 kts | 162° |
| 2026-05-05 21:11 | 53.70850 | -3.03964 | 31055 ft | 457 kts | 162° |
| 2026-05-05 21:12 | 53.64841 | -3.00166 | 27900 ft | 494 kts | 163° |
| 2026-05-05 21:12 | 53.61561 | -2.98167 | 26901 ft | 494 kts | 163° |
| 2026-05-05 21:12 | 53.58376 | -2.96241 | 26199 ft | 480 kts | 163° |
| 2026-05-05 21:13 | 53.55364 | -2.94441 | 27499 ft | 449 kts | 164° |
| 2026-05-05 21:13 | 53.52498 | -2.92766 | 28598 ft | 436 kts | 164° |
| 2026-05-05 21:13 | 53.49665 | -2.91003 | 29234 ft | 436 kts | 163° |
| 2026-05-05 21:13 | 53.46815 | -2.89151 | 29450 ft | 443 kts | 162° |
| 2026-05-05 21:14 | 53.43924 | -2.87255 | 29633 ft | 450 kts | 162° |
| 2026-05-05 21:14 | 53.40989 | -2.85344 | 29889 ft | 455 kts | 162° |
| 2026-05-05 21:14 | 53.38027 | -2.83439 | 30285 ft | 456 kts | 163° |
| 2026-05-05 21:14 | 53.35063 | -2.81553 | 30702 ft | 455 kts | 163° |
| 2026-05-05 21:15 | 53.32093 | -2.79681 | 30999 ft | 458 kts | 163° |
| 2026-05-05 21:15 | 53.29114 | -2.77816 | 31052 ft | 457 kts | 163° |
| 2026-05-05 21:15 | 53.23164 | -2.74105 | 31052 ft | 456 kts | 163° |
| 2026-05-05 21:16 | 53.17218 | -2.70409 | 31049 ft | 456 kts | 163° |
| 2026-05-05 21:16 | 53.11263 | -2.66717 | 31040 ft | 457 kts | 163° |
| 2026-05-05 21:17 | 53.05309 | -2.63035 | 31033 ft | 457 kts | 163° |
| 2026-05-05 21:17 | 52.99353 | -2.59362 | 31031 ft | 457 kts | 163° |
| 2026-05-05 21:18 | 52.93390 | -2.55697 | 31025 ft | 458 kts | 162° |
| 2026-05-05 21:18 | 52.87412 | -2.52033 | 31026 ft | 458 kts | 162° |
| 2026-05-05 21:19 | 52.81483 | -2.48152 | 31018 ft | 460 kts | 155° |
| 2026-05-05 21:19 | 52.75991 | -2.42685 | 31024 ft | 461 kts | 149° |
| 2026-05-05 21:20 | 52.70648 | -2.36829 | 31035 ft | 461 kts | 148° |
| 2026-05-05 21:20 | 52.65328 | -2.30911 | 31035 ft | 461 kts | 148° |
| 2026-05-05 21:21 | 52.59994 | -2.25023 | 31029 ft | 461 kts | 148° |
| 2026-05-05 21:21 | 52.54653 | -2.19176 | 31025 ft | 461 kts | 148° |
| 2026-05-05 21:22 | 52.49306 | -2.13351 | 31020 ft | 462 kts | 148° |
| 2026-05-05 21:22 | 52.43939 | -2.07522 | 31022 ft | 463 kts | 148° |
| 2026-05-05 21:23 | 52.38575 | -2.01710 | 30630 ft | 460 kts | 148° |
| 2026-05-05 21:23 | 52.35896 | -1.98815 | 29718 ft | 463 kts | 148° |
| 2026-05-05 21:23 | 52.33201 | -1.95905 | 28769 ft | 464 kts | 149° |
| 2026-05-05 21:24 | 52.30506 | -1.92997 | 27859 ft | 464 kts | 149° |
| 2026-05-05 21:24 | 52.27798 | -1.90082 | 26810 ft | 468 kts | 149° |
| 2026-05-05 21:24 | 52.25077 | -1.87137 | 25776 ft | 471 kts | 149° |
| 2026-05-05 21:24 | 52.22340 | -1.84170 | 24811 ft | 473 kts | 149° |
| 2026-05-05 21:25 | 52.19599 | -1.81210 | 23971 ft | 472 kts | 149° |
| 2026-05-05 21:25 | 52.16867 | -1.78271 | 23170 ft | 469 kts | 149° |
| 2026-05-05 21:25 | 52.14164 | -1.75374 | 22388 ft | 463 kts | 149° |
| 2026-05-05 21:25 | 52.11488 | -1.72514 | 21593 ft | 458 kts | 149° |
| 2026-05-05 21:26 | 52.08837 | -1.69686 | 20816 ft | 453 kts | 149° |
| 2026-05-05 21:26 | 52.06251 | -1.66933 | 20077 ft | 448 kts | 148° |
| 2026-05-05 21:26 | 52.03655 | -1.64176 | 19331 ft | 443 kts | 148° |
| 2026-05-05 21:26 | 52.01092 | -1.61456 | 18692 ft | 436 kts | 148° |
| 2026-05-05 21:27 | 51.98582 | -1.58797 | 18225 ft | 425 kts | 148° |
| 2026-05-05 21:27 | 51.96137 | -1.56213 | 17806 ft | 413 kts | 148° |
| 2026-05-05 21:27 | 51.93746 | -1.53689 | 17454 ft | 409 kts | 148° |
| 2026-05-05 21:27 | 51.91365 | -1.51183 | 17106 ft | 408 kts | 148° |
| 2026-05-05 21:28 | 51.88988 | -1.48681 | 16747 ft | 407 kts | 148° |
| 2026-05-05 21:28 | 51.86620 | -1.46191 | 16389 ft | 405 kts | 148° |
| 2026-05-05 21:28 | 51.84262 | -1.43713 | 16039 ft | 403 kts | 148° |
| 2026-05-05 21:28 | 51.81913 | -1.41248 | 15688 ft | 402 kts | 148° |
| 2026-05-05 21:29 | 51.79572 | -1.38795 | 15332 ft | 400 kts | 148° |
| 2026-05-05 21:29 | 51.77239 | -1.36352 | 15055 ft | 399 kts | 148° |
| 2026-05-05 21:29 | 51.74910 | -1.33919 | 14840 ft | 398 kts | 148° |
| 2026-05-05 21:29 | 51.72585 | -1.31490 | 14664 ft | 398 kts | 148° |
| 2026-05-05 21:30 | 51.70262 | -1.29067 | 14505 ft | 398 kts | 148° |
| 2026-05-05 21:30 | 51.67936 | -1.26644 | 14326 ft | 398 kts | 148° |
| 2026-05-05 21:30 | 51.65607 | -1.24222 | 14157 ft | 398 kts | 149° |
| 2026-05-05 21:30 | 51.63281 | -1.21806 | 13997 ft | 398 kts | 149° |
| 2026-05-05 21:31 | 51.60959 | -1.19397 | 13861 ft | 397 kts | 149° |
| 2026-05-05 21:31 | 51.58641 | -1.16994 | 13690 ft | 396 kts | 148° |
| 2026-05-05 21:31 | 51.56326 | -1.14599 | 13518 ft | 395 kts | 148° |
| 2026-05-05 21:31 | 51.54019 | -1.12214 | 13361 ft | 393 kts | 148° |
| 2026-05-05 21:32 | 51.51722 | -1.09841 | 13209 ft | 392 kts | 148° |
| 2026-05-05 21:32 | 51.49429 | -1.07476 | 13042 ft | 391 kts | 148° |
| 2026-05-05 21:32 | 51.47140 | -1.05118 | 12880 ft | 390 kts | 148° |
| 2026-05-05 21:32 | 51.44856 | -1.02768 | 12716 ft | 390 kts | 148° |
| 2026-05-05 21:33 | 51.42579 | -1.00429 | 12556 ft | 388 kts | 148° |
| 2026-05-05 21:33 | 51.40305 | -0.98095 | 12395 ft | 387 kts | 148° |
| 2026-05-05 21:33 | 51.38040 | -0.95772 | 12234 ft | 387 kts | 148° |
| 2026-05-05 21:33 | 51.35775 | -0.93454 | 12066 ft | 386 kts | 148° |
| 2026-05-05 21:34 | 51.33518 | -0.91145 | 11909 ft | 385 kts | 148° |
| 2026-05-05 21:34 | 51.31263 | -0.88842 | 11754 ft | 384 kts | 147° |
| 2026-05-05 21:34 | 51.29016 | -0.86548 | 11584 ft | 383 kts | 147° |
| 2026-05-05 21:34 | 51.26773 | -0.84263 | 11446 ft | 382 kts | 147° |
| 2026-05-05 21:35 | 51.24533 | -0.81982 | 11293 ft | 382 kts | 147° |
| 2026-05-05 21:35 | 51.22306 | -0.79719 | 10854 ft | 378 kts | 147° |
| 2026-05-05 21:35 | 51.20094 | -0.77473 | 10439 ft | 377 kts | 147° |
| 2026-05-05 21:35 | 51.17887 | -0.75234 | 9862 ft | 376 kts | 147° |
| 2026-05-05 21:36 | 51.15711 | -0.73029 | 9441 ft | 364 kts | 147° |
| 2026-05-05 21:36 | 51.13618 | -0.70912 | 9187 ft | 349 kts | 147° |
| 2026-05-05 21:36 | 51.11611 | -0.68886 | 8961 ft | 334 kts | 147° |
| 2026-05-05 21:36 | 51.09691 | -0.66949 | 8733 ft | 320 kts | 147° |
| 2026-05-05 21:37 | 51.07846 | -0.65088 | 8531 ft | 307 kts | 147° |
| 2026-05-05 21:37 | 51.06123 | -0.63197 | 8297 ft | 296 kts | 139° |
| 2026-05-05 21:37 | 51.04821 | -0.60748 | 7947 ft | 287 kts | 120° |
| 2026-05-05 21:37 | 51.03874 | -0.57986 | 7571 ft | 283 kts | 115° |
| 2026-05-05 21:38 | 51.03020 | -0.55232 | 7208 ft | 280 kts | 115° |
| 2026-05-05 21:38 | 51.02171 | -0.52470 | 6990 ft | 277 kts | 115° |
| 2026-05-05 21:38 | 51.01309 | -0.49684 | 6961 ft | 278 kts | 115° |
| 2026-05-05 21:38 | 51.00464 | -0.46972 | 6959 ft | 278 kts | 115° |
| 2026-05-05 21:39 | 50.99604 | -0.44225 | 6967 ft | 278 kts | 115° |
| 2026-05-05 21:39 | 50.98743 | -0.41485 | 6956 ft | 278 kts | 115° |
| 2026-05-05 21:39 | 50.97879 | -0.38740 | 6957 ft | 278 kts | 115° |
| 2026-05-05 21:39 | 50.97016 | -0.36000 | 6956 ft | 278 kts | 115° |
| 2026-05-05 21:40 | 50.96151 | -0.33261 | 6960 ft | 278 kts | 115° |
| 2026-05-05 21:40 | 50.95285 | -0.30520 | 6956 ft | 278 kts | 115° |
| 2026-05-05 21:40 | 50.94419 | -0.27783 | 6962 ft | 278 kts | 115° |
| 2026-05-05 21:40 | 50.93553 | -0.25051 | 6826 ft | 277 kts | 115° |
| 2026-05-05 21:41 | 50.92688 | -0.22325 | 6444 ft | 276 kts | 116° |
| 2026-05-05 21:41 | 50.91829 | -0.19621 | 6092 ft | 273 kts | 116° |
| 2026-05-05 21:41 | 50.90979 | -0.16946 | 5997 ft | 272 kts | 116° |
| 2026-05-05 21:41 | 50.90266 | -0.14275 | 5972 ft | 254 kts | 100° |
| 2026-05-05 21:42 | 50.90323 | -0.11627 | 5986 ft | 234 kts | 70° |
| 2026-05-05 21:42 | 50.91179 | -0.09519 | 5987 ft | 228 kts | 40° |
| 2026-05-05 21:42 | 50.92077 | -0.08668 | 5994 ft | 228 kts | 20° |
| 2026-05-05 21:42 | 50.93643 | -0.08451 | 5877 ft | 230 kts | 351° |
| 2026-05-05 21:43 | 50.95079 | -0.09530 | 5508 ft | 233 kts | 320° |
| 2026-05-05 21:43 | 50.95970 | -0.11665 | 5153 ft | 237 kts | 290° |
| 2026-05-05 21:43 | 50.96182 | -0.14249 | 5011 ft | 237 kts | 274° |
| 2026-05-05 21:43 | 50.96168 | -0.16875 | 4996 ft | 239 kts | 271° |
| 2026-05-05 21:44 | 50.96125 | -0.19514 | 4989 ft | 239 kts | 271° |
| 2026-05-05 21:44 | 50.96078 | -0.22156 | 4704 ft | 240 kts | 271° |
| 2026-05-05 21:44 | 50.96033 | -0.24789 | 4382 ft | 238 kts | 271° |
| 2026-05-05 21:44 | 50.96228 | -0.27363 | 4066 ft | 234 kts | 290° |
| 2026-05-05 21:45 | 50.96798 | -0.29765 | 3741 ft | 231 kts | 295° |
| 2026-05-05 21:45 | 50.97428 | -0.32093 | 3320 ft | 231 kts | 296° |
| 2026-05-05 21:45 | 50.98076 | -0.34430 | 3039 ft | 230 kts | 296° |
| 2026-05-05 21:45 | 50.98723 | -0.36742 | 3014 ft | 229 kts | 296° |
| 2026-05-05 21:46 | 50.99370 | -0.39068 | 3001 ft | 231 kts | 296° |
| 2026-05-05 21:46 | 51.00097 | -0.41332 | 2992 ft | 229 kts | 310° |
| 2026-05-05 21:46 | 51.01318 | -0.42898 | 3004 ft | 226 kts | 333° |
| 2026-05-05 21:46 | 51.02709 | -0.44062 | 2994 ft | 226 kts | 336° |
| 2026-05-05 21:47 | 51.04123 | -0.45175 | 2995 ft | 227 kts | 336° |
| 2026-05-05 21:47 | 51.05542 | -0.46281 | 3000 ft | 227 kts | 336° |
| 2026-05-05 21:47 | 51.06959 | -0.47391 | 2999 ft | 227 kts | 336° |
| 2026-05-05 21:47 | 51.08376 | -0.48494 | 3000 ft | 224 kts | 339° |
| 2026-05-05 21:48 | 51.09810 | -0.48829 | 2982 ft | 199 kts | 13° |
| 2026-05-05 21:48 | 51.10897 | -0.47679 | 2982 ft | 186 kts | 60° |
| 2026-05-05 21:48 | 51.11213 | -0.45746 | 2999 ft | 181 kts | 82° |
| 2026-05-05 21:48 | 51.11400 | -0.43758 | 3003 ft | 182 kts | 79° |
| 2026-05-05 21:49 | 51.11664 | -0.41787 | 2928 ft | 182 kts | 77° |
| 2026-05-05 21:49 | 51.11941 | -0.39828 | 2705 ft | 181 kts | 78° |
| 2026-05-05 21:49 | 51.12209 | -0.37869 | 2446 ft | 181 kts | 78° |
| 2026-05-05 21:49 | 51.12477 | -0.35922 | 2192 ft | 179 kts | 78° |
| 2026-05-05 21:50 | 51.12744 | -0.33995 | 1935 ft | 177 kts | 78° |
| 2026-05-05 21:50 | 51.13007 | -0.32088 | 1700 ft | 176 kts | 78° |
| 2026-05-05 21:50 | 51.13266 | -0.30221 | 1449 ft | 167 kts | 78° |
| 2026-05-05 21:50 | 51.13506 | -0.28489 | 1234 ft | 154 kts | 79° |
| 2026-05-05 21:51 | 51.13724 | -0.26913 | 1030 ft | 140 kts | 78° |
| 2026-05-05 21:51 | 51.13927 | -0.25399 | 829 ft | 140 kts | 79° |
| 2026-05-05 21:51 | 51.14140 | -0.23894 | 657 ft | 140 kts | 77° |
| 2026-05-05 21:51 | 51.14368 | -0.22391 | 487 ft | 139 kts | 78° |
| 2026-05-05 21:52 | 51.14733 | -0.19427 | 212 ft | 124 kts | 77° |
| 2026-05-05 21:52 | 51.14863 | -0.18642 | 207 ft | 41 kts | 76° |
| 2026-05-05 21:52 | 51.14925 | -0.18225 | 206 ft | 36 kts | 75° |
| 2026-05-05 21:53 | 51.15018 | -0.17884 | 213 ft | 31 kts | 54° |
| 2026-05-05 21:53 | 51.15111 | -0.17759 | 210 ft | 9 kts | 9° |
| 2026-05-05 21:53 | 51.15117 | -0.17757 | 210 ft | 0 kts | 10° |
| 2026-05-05 21:54 | 51.15133 | -0.17759 | 218 ft | 1 kts | 354° |
| 2026-05-05 21:54 | 51.15155 | -0.17763 | 211 ft | 3 kts | 354° |
| 2026-05-05 21:54 | 51.15176 | -0.17767 | 214 ft | 4 kts | 353° |
| 2026-05-05 21:55 | 51.15218 | -0.17784 | 212 ft | 15 kts | 334° |
| 2026-05-05 21:55 | 51.15241 | -0.17882 | 217 ft | 7 kts | 262° |
| 2026-05-05 21:55 | 51.15225 | -0.18008 | 215 ft | 12 kts | 264° |
| 2026-05-05 21:55 | 51.15261 | -0.18098 | 212 ft | 8 kts | 340° |
| 2026-05-05 21:56 | 51.15317 | -0.18121 | 212 ft | 11 kts | 347° |
| 2026-05-05 21:56 | 51.15389 | -0.18146 | 213 ft | 10 kts | 348° |
| 2026-05-05 21:56 | 51.15464 | -0.18174 | 208 ft | 12 kts | 345° |
| 2026-05-05 21:56 | 51.15531 | -0.18203 | 208 ft | 8 kts | 346° |
| 2026-05-05 21:57 | 51.15579 | -0.18222 | 208 ft | 6 kts | 346° |
| 2026-05-05 21:57 | 51.15635 | -0.18213 | 211 ft | 8 kts | 25° |
| 2026-05-05 21:57 | 51.15672 | -0.18142 | 214 ft | 9 kts | 68° |
| 2026-05-05 21:57 | 51.15691 | -0.18031 | 218 ft | 11 kts | 76° |
| 2026-05-05 21:58 | 51.15707 | -0.17922 | 214 ft | 8 kts | 77° |
| 2026-05-05 21:58 | 51.15736 | -0.17873 | 213 ft | 4 kts | 25° |
| 2026-05-05 21:58 | 51.15752 | -0.17869 | 208 ft | 1 kts | 4° |
| 2026-05-05 21:58 | 51.15761 | -0.17870 | 208 ft | 0 kts | 354° |
| 2026-05-05 21:59 | 51.15772 | -0.17875 | 208 ft | 0 kts | 346° |